Rochester, NY

2:30 PM EDT on August 03, 2015 (GMT -0400)
Greater Rochester International | | Change Station
CLOSE
Current Station
Airport
Location: Rochester,
Elevation: 554 ft
Nearby Weather Stations

Elev 554 ft 43.12 °N, 77.68 °W | Updated 36 minutes ago

Overcast
Overcast
78 °F
Feels Like 78 °F
N
15
Wind Variable Wind from West
Gusts 25 mph

Today
High -- | Low -- °F
--% Chance of Precip.
Yesterday
High -- | Low -- °F
Precip. -- in
6:03 AM 8:30 PM
Waning Gibbous, 85% visible
Pressure 29.75 in
Visibility 10.0 miles
Clouds Scattered Clouds 3500 ft
Mostly Cloudy 4400 ft
Overcast 25000 ft
Dew Point 61 °F
Humidity 56%
Rainfall 0.01 in
Snow Depth Not available.
UV 3 out of 12
Pollen 4.80 out of 12
Air Quality Not available.
Flu Activity Not available.
METAR KROC 031754Z 26013G22KT 10SM SCT035 BKN044 OVC250 26/16 A2976 RMK AO2 SLP073 60001 T02560161 10256 20206 57002

More Conditions Fewer Conditions

Pressure 29.75 in
Visibility 10.0 miles
Clouds Scattered Clouds 3500 ft
Mostly Cloudy 4400 ft
Overcast 25000 ft
Dew Point 61 °F
Humidity 56%
Rainfall 0.01 in
Snow Depth Not available.
UV 3 out of 12
Pollen 4.80 out of 12
Air Quality Not available.
Flu Activity Not available.
METAR KROC 031754Z 26013G22KT 10SM SCT035 BKN044 OVC250 26/16 A2976 RMK AO2 SLP073 60001 T02560161 10256 20206 57002

More Conditions Fewer Conditions

10-Day Weather Forecast

×

Almanac

Astronomy

Aug. 03, 2015 Rise Set
Actual Time
Civil Twilight
Nautical Twilight
Astronomical Twilight
Moon
Length of Visible Light
Length of Day
Tomorrow will be .
, % of the Moon is Illuminated

Today's Extremes

State Highs State Lows

Community

WunderPhotos

Upload Photos

1,843,703 photos uploaded!

WunderBlogs® & News

Nearby

Air Quality

  Air Quality AQ Index Pollutant
Not available.

Snow Depth

Station Depth Elevation

Earthquake Activity

City Distance Mag. Time & Date
Minimum magnitude displayed is 2.5.

Coastal Water Temperatures

Place Temperature

Stations

Nearby Weather Stations

Station Location Temp. Windchill Dew Point Humidity Wind Precip. Elev Updated Type